Frasnes-lez-Buissenal, Belgium
Current Conditions -  °F | °C
As of 3:10 PM on Wednesday 28 Jan 2015 (Local Time) from EBCV Reporting Station
Broken Clouds Broken Clouds  
Wind Chill: 33°   Ceiling: 1000
Heat Index: 43°   Visibility: 2.2mi
Dew Point: 41°   Wind: 26mph
Humidity: 93%   Direction: 210°SSW
Pressure: 29.62"   Gusts: 38mph
Location:  50.67°N, 3.62°E
Report Text: EBCV 281410Z AUTO 21023G33KT 3600 SCT007/// BKN010/// BKN013/// 06/05 Q1003 YLO
Loading
Personal Weather Stations






























Interactive Weather Map New forecast layout! Learn more

10-Day Weather Forecast

Advertisements
Track Severe Weather on mobile